x

West Moresby (46208) Wave Buoy

1:00pm - Mon 29th Aug 2016 All times are PDT. -7 hours from GMT.

  • Sig Wave height 6.2ft
  • Peak Period 8s
  • Wind
    18mph
  • Sea Temp 60°f
  • Air Temp 60°f
  • Sea Pressure 1006.5mb
  • West Moresby
  • West Moresby

More Historic Weather Station data

Upgrade to MSW Pro to gain access to the past 30 days of data for over 8000 Wavebouys and Weather Stations around the globe.

Join Pro

Comparision Forecast

View Surf forecast
   
Mon 08/29 1:00pm 6ft 8s 18
mph
1006.5mb 60f 60f
12:00pm 5.5ft 8s 18 20 mph 1006.4mb 60f 59f
11:00am 6ft 7s 13 18 mph 1006.7mb 59f 59f
10:00am 6ft 7s 13 16 mph 1006.6mb 59f 58f
9:00am 6ft 8s 16 18 mph 1006.4mb 60f 59f
8:00am 6ft 7s 11 16 mph 1006.4mb 60f 59f
7:00am 6ft 9s 11
mph
1006.3mb 60f 58f
6:00am 6ft 8s 13 16 mph 1006.1mb 60f 58f
5:00am 6ft 9s 16 20 mph 1006.2mb 60f 59f
4:00am 5.5ft 10s 13 16 mph 1006.2mb 60f 60f
3:00am 6ft 9s 13 18 mph 1005.8mb 60f 60f
2:00am 6ft 9s 16 18 mph 1005.3mb 60f 60f
1:00am 6.5ft 8s 16 18 mph 1004.5mb 60f 60f
12:00am 6.5ft 8s 13 16 mph 1004.1mb 60f 60f
Sun 08/28 11:00pm 7ft 9s 13 16 mph 1003.8mb 60f 60f
10:00pm 7ft 8s 20 25 mph 1003.6mb 59f 60f
9:00pm 6ft 8s 22 27 mph 1003.9mb 60f 59f
8:00pm 6ft 9s 18 22 mph 1004.1mb 60f 60f
7:00pm 6ft 10s 18 22 mph 1004.6mb 60f 60f
6:00pm 5.5ft 8s 18 22 mph 1004.9mb 60f 60f
5:00pm 5ft 9s 18 20 mph 1005mb 60f 60f
4:00pm 5ft 14s 16 18 mph 1005.3mb 60f 60f
3:00pm 4.5ft 7s 11 16 mph 1005.4mb 60f 59f
2:00pm 4.5ft 15s 13 18 mph 1005.1mb 60f 59f
1:00pm 4.5ft 7s 18 20 mph 1004.9mb 60f 60f
12:00pm 4.5ft 14s 11 13 mph 1004.9mb 60f 60f
11:00am 5ft 7s 11 13 mph 1005mb 60f 60f
10:00am 5ft 6s 18 22 mph 1004.9mb 60f 59f
9:00am 6ft 6s 22 25 mph 1005.1mb 60f 59f
8:00am 6ft 6s 22 27 mph 1005.6mb 60f 57f
7:00am 6.5ft 6s 25 29 mph 1005.5mb 60f 58f
6:00am 6ft 6s 27 34 mph 1005.5mb 60f 58f
5:00am 6ft 5s 25 29 mph 1005.7mb 59f 57f
4:00am 5.5ft 5s 27 31 mph 1006.1mb 59f 57f
3:00am 4.5ft 7s 25 29 mph 1006.8mb 59f 58f
2:00am 5ft 8s 22 27 mph 1007.4mb 59f 58f
1:00am 5ft 7s 18 22 mph 1007.9mb 58f 58f
12:00am 5ft 7s 16 20 mph 1008.3mb 55f 58f
Sat 08/27 11:00pm 5ft 8s 13 16 mph 1008.8mb 55f 58f
10:00pm 5ft 8s 13 16 mph 1009.4mb 55f 59f
9:00pm 5ft 8s 13 16 mph 1009.5mb 58f 59f
8:00pm 5ft 7s 9 11 mph 1009.7mb 59f 59f
7:00pm 5ft 8s 7 9 mph 1010.5mb 60f 59f
6:00pm 5ft 8s 4
mph
1010.9mb 60f 59f
5:00pm 5.5ft 8s  -  2 mph 1011.2mb 60f 60f
4:00pm 6ft 8s  -  2 mph 1011.6mb 60f 59f
3:00pm 7ft 8s  -  2 mph 1012.1mb 59f 58f
2:00pm 7.5ft 8s 4
mph
1012.3mb 57f 58f
1:00pm 8ft 8s 4 7 mph 1012.3mb 55f 58f
12:00pm 7.5ft 8s 7
mph
1012.2mb 55f 58f
11:00am 7ft 8s 11 13 mph 1012.5mb 55f 58f
10:00am 7ft 8s 11 13 mph 1012.7mb 56f 58f
9:00am 7ft 8s 9 11 mph 1012.8mb 58f 58f
8:00am 6.5ft 8s 16 18 mph 1013.1mb 58f 58f
7:00am 7ft 8s 20 25 mph 1013.3mb 59f 59f
6:00am 7ft 8s 13 18 mph 1013.9mb 59f 59f
5:00am 7ft 8s 18 22 mph 1014mb 60f 59f
4:00am 7ft 8s 20 27 mph 1014.7mb 60f 59f
3:00am 7ft 8s 16 20 mph 1015.1mb 60f 59f
2:00am 7.5ft 8s 18 25 mph 1015.5mb 59f 59f
1:00am 7.5ft 8s 13 18 mph 1015.8mb 57f 58f
12:00am 8ft 8s 13 18 mph 1016.1mb 57f 59f
Fri 08/26 11:00pm 7ft 7s 16 20 mph 1016.2mb 58f 59f
10:00pm 6ft 7s 16 20 mph 1016.6mb 58f 59f
9:00pm 6ft 7s 13 20 mph 1016.6mb 59f 58f
8:00pm 6ft 7s 18 20 mph 1016.7mb 59f 59f
7:00pm 5ft 7s 16 20 mph 1016.8mb 59f 59f
6:00pm 5ft 7s 16 18 mph 1017.4mb 59f 59f
5:00pm 5ft 6s 16 20 mph 1017.8mb 59f 59f
4:00pm 5ft 6s 18 20 mph 1018.2mb 59f 59f
3:00pm 5ft 6s 18 20 mph 1019.2mb 58f 59f
2:00pm 5ft 6s 13 16 mph 1019.6mb 57f 59f
1:00pm 4.5ft 6s 16 18 mph 1020.2mb 56f 58f
12:00pm 5ft 6s 11 13 mph 1020.3mb 56f 58f
11:00am 5ft 6s 13 18 mph 1020.5mb 57f 58f
10:00am 5ft 6s 13 18 mph 1020.9mb 57f 58f
9:00am 5ft 6s 20 22 mph 1021.1mb 57f 58f
8:00am 5ft 6s 18 22 mph 1021.3mb 58f 59f
7:00am 5.5ft 7s 18 20 mph 1021.7mb 59f 58f
6:00am 6ft 7s 20 25 mph 1022.2mb 59f 58f
5:00am 7.5ft 7s 25 29 mph 1022.4mb 59f 58f
4:00am 7ft 7s 27 31 mph 1023mb 59f 57f
3:00am 9ft 7s 27 34 mph 1022.9mb 59f 57f
2:00am 8ft 7s 29 36 mph 1023.2mb 58f 57f
1:00am 9ft 8s 27 34 mph 1023.2mb 57f 57f
12:00am 9ft 7s 27 36 mph 1024.2mb 57f 57f
Thu 08/25 11:00pm 9ft 7s 29 36 mph 1024.2mb 57f 57f